Coboldo Supervisore
| Nome | Coboldo Supervisore |
|---|---|
| Predefinito | Kobold Taskmaster |
| Tipo | Creatura: coboldo |
| Descrizione | Altre creature Kobold che controlli prendono +1/+0. |
| Gusto | « Fouetter le kobold » è un'espressione che non rien de vulgaire. |
| Artista | Randy Asplund-Faith |
| Espansione | Edizione Master III #106 |
| Carta da parati | |
| Immagine |
Di Coboldo Supervisore
Coboldo Supervisore, Creatura: coboldo, progettato da Randy Asplund-Faith rilasciato per la prima volta giugno 1994 in redazione Legends ed è stato stampato esattamente in 3 forme diverse. Attualmente viene venduto al prezzo più basso di € 0,43.
Un mazzo incentrato sulla sinergia tribale con le creature Coboldi trarrebbe vantaggio dall'inclusione di Coboldo Taskmaster, poiché fornisce un potenziamento alle altre creature Coboldi. Tuttavia, sono disponibili opzioni più potenti come Goblin Chieftain, che fornisce un potenziamento simile alle creature Goblin e ha abilità aggiuntive. Anche se Coboldo Taskmaster potrebbe non essere una carta di alto livello, potrebbe comunque essere giocata in mazzi casual o a tema incentrati sulle strategie tribali dei Coboldi.
Dove comprare
![]() | Card Kingdom | 35 uni.
| € 0,40 | visita il negozio |
![]() | Ebay.com | visita il negozio | ||
![]() | Cardkingdom | visita il negozio | ||
![]() | Printing proxies | $ 0.75 | visita il negozio |
*Questo sito contiene link di affiliazione per i quali potremmo ricevere un compenso
Gruppo
avviso di prezzo ?
Avvisami quando arriva il prezzo
Storico dell'andamento dei prezzi

Storico dei prezzi
| Data | Prezzo minimo | Prezzo medio | Decks |
|---|---|---|---|
| 2024-09-06 | 0.37 EUR | 3.60 EUR | 0 |
| 2024-09-09 | 0.37 EUR | 3.65 EUR | 0 |
| 2024-09-16 | 0.37 EUR | 4.48 EUR | 0 |
| 2024-09-23 | 0.37 EUR | 4.04 EUR | 0 |
| 2024-09-30 | 0.37 EUR | 3.46 EUR | 0 |
| 2024-10-07 | 0.37 EUR | 3.58 EUR | 0 |
| 2024-10-14 | 0.37 EUR | 3.56 EUR | 0 |
| 2024-10-21 | 0.37 EUR | 3.52 EUR | 0 |
| 2024-10-28 | 0.37 EUR | 3.43 EUR | 0 |
| 2024-11-06 | 0.37 EUR | 3.37 EUR | 0 |
| 2024-11-11 | 0.37 EUR | 3.30 EUR | 0 |
| 2024-11-18 | 0.37 EUR | 3.69 EUR | 0 |
| 2024-11-25 | 0.37 EUR | 4.15 EUR | 0 |
| 2024-12-02 | 0.37 EUR | 3.14 EUR | 0 |
| 2024-12-09 | 0.37 EUR | 3.54 EUR | 0 |
| 2024-12-19 | 0.37 EUR | 3.54 EUR | 0 |
| 2024-12-23 | 0.37 EUR | 3.54 EUR | 0 |
| 2024-12-30 | 0.37 EUR | 3.54 EUR | 0 |
| 2025-01-01 | 0.37 EUR | 3.54 EUR | 0 |
| 2025-01-06 | 0.37 EUR | 3.54 EUR | 0 |
| 2025-01-13 | 0.37 EUR | 3.54 EUR | 0 |
| 2025-01-20 | 0.37 EUR | 3.54 EUR | 0 |
| 2025-01-27 | 0.37 EUR | 3.54 EUR | 0 |
| 2025-02-03 | 0.37 EUR | 3.54 EUR | 0 |
| 2025-02-10 | 1.86 EUR | 4.23 EUR | 0 |
| 2025-02-18 | 4.09 EUR | 5.01 EUR | 0 |
| 2025-04-27 | 0.76 EUR | 3.49 EUR | 0 |
| 2025-04-28 | 0.75 EUR | 3.48 EUR | 0 |
| 2025-05-06 | 5.73 EUR | 5.73 EUR | 0 |
| 2025-05-12 | 5.71 EUR | 5.71 EUR | 0 |
| 2025-05-19 | 5.72 EUR | 5.92 EUR | 0 |
| 2025-05-28 | 3.18 EUR | 4.70 EUR | 0 |
| 2025-06-03 | 0.66 EUR | 3.19 EUR | 0 |
| 2025-06-10 | 0.60 EUR | 2.87 EUR | 0 |
| 2025-06-17 | 0.55 EUR | 2.82 EUR | 0 |
| 2025-06-23 | 0.55 EUR | 2.65 EUR | 0 |
| 2025-07-01 | 4.15 EUR | 4.61 EUR | 0 |
| 2025-07-08 | 4.11 EUR | 4.45 EUR | 0 |
| 2025-07-15 | 0.55 EUR | 2.38 EUR | 0 |
| 2025-07-22 | 0.55 EUR | 2.23 EUR | 0 |
| 2025-07-29 | 1.84 EUR | 2.79 EUR | 0 |
| 2025-08-05 | 3.73 EUR | 3.73 EUR | 0 |
| 2025-08-12 | 3.35 EUR | 3.35 EUR | 0 |
| 2025-08-18 | 3.66 EUR | 3.66 EUR | 0 |
| 2025-08-25 | 3.03 EUR | 3.47 EUR | 0 |
| 2025-09-02 | 1.79 EUR | 2.33 EUR | 0 |
| 2025-09-09 | 2.89 EUR | 4.07 EUR | 0 |
| 2025-09-15 | 0.62 EUR | 2.72 EUR | 0 |
| 2025-09-23 | 1.88 EUR | 3.97 EUR | 0 |
| 2025-09-29 | 1.70 EUR | 4.02 EUR | 0 |
| 2025-10-06 | 1.13 EUR | 1.66 EUR | 0 |
| 2025-10-13 | 3.20 EUR | 0.62 EUR | 0 |
| 2025-10-20 | 1.97 EUR | 4.56 EUR | 0 |
| 2025-10-27 | 0.72 EUR | 3.25 EUR | 0 |
| 2025-11-03 | 0.64 EUR | 3.03 EUR | 0 |
| 2025-11-10 | 0.58 EUR | 2.88 EUR | 0 |
| 2025-11-18 | 0.53 EUR | 2.73 EUR | 0 |
| 2025-11-24 | 0.60 EUR | 2.59 EUR | 0 |
| 2025-12-03 | 0.62 EUR | 2.50 EUR | 0 |
| 2025-12-08 | 0.54 EUR | 2.33 EUR | 0 |
| 2025-12-15 | 0.61 EUR | 2.18 EUR | 0 |
| 2025-12-22 | 0.65 EUR | 2.18 EUR | 0 |
| 2025-12-29 | 0.65 EUR | 2.19 EUR | 0 |
| 2026-01-01 | 0.64 EUR | 2.17 EUR | 0 |
| 2026-01-05 | 0.63 EUR | 2.36 EUR | 0 |
| 2026-01-13 | 0.63 EUR | 1.70 EUR | 0 |
| 2026-01-20 | 0.62 EUR | 2.61 EUR | 0 |
| 2026-01-26 | 1.81 EUR | 3.34 EUR | 0 |
| 2026-02-02 | 0.61 EUR | 2.29 EUR | 0 |
| 2026-02-09 | 0.61 EUR | 1.61 EUR | 0 |
| 2026-02-16 | 0.61 EUR | 2.43 EUR | 0 |
| 2026-02-23 | 4.25 EUR | 3.37 EUR | 0 |
| 2026-03-02 | 3.70 EUR | 3.59 EUR | 0 |
| 2026-03-10 | 0.82 EUR | 1.64 EUR | 0 |
| 2026-03-16 | 0.99 EUR | 3.70 EUR | 0 |
| 2026-04-02 | 1.14 EUR | 4.55 EUR | 0 |
| 2026-04-07 | 1.29 EUR | 4.30 EUR | 0 |
| 2026-04-14 | 1.25 EUR | 4.04 EUR | 0 |
| 2026-04-23 | 1.25 EUR | 4.18 EUR | 0 |
| 2026-04-30 | 1.08 EUR | 4.10 EUR | 0 |
| 2026-05-05 | 0.95 EUR | 3.80 EUR | 0 |
| 2026-05-14 | 0.99 EUR | 3.62 EUR | 0 |
| 2026-05-20 | 1.09 EUR | 3.71 EUR | 0 |
| 2026-05-25 | 1.10 EUR | 3.52 EUR | 0 |
| 2026-06-01 | 4.07 EUR | 4.92 EUR | 0 |
| 2026-06-08 | 2.55 EUR | 4.07 EUR | 0 |
| 2026-06-15 | 1.28 EUR | 3.22 EUR | 0 |
| 2026-06-23 | 1.23 EUR | 3.09 EUR | 0 |
| 2026-06-29 | 1.12 EUR | 2.88 EUR | 0 |
| 2026-07-06 | 0.94 EUR | 2.63 EUR | 0 |
| 2026-07-13 | 0.85 EUR | 2.66 EUR | 0 |
| 2026-07-20 | 3.79 EUR | 4.43 EUR | 0 |
| 2026-07-27 | 1.88 EUR | 3.65 EUR | 0 |
| 2026-08-03 | 0.68 EUR | 2.85 EUR | 0 |
| 2026-08-10 | 0.60 EUR | 2.68 EUR | 0 |
| 2026-08-17 | 0.58 EUR | 2.66 EUR | 0 |
| 2026-08-24 | 0.51 EUR | 2.42 EUR | 0 |
| 2026-09-01 | 0.43 EUR | 2.55 EUR | 0 |
Domande frequenti su Coboldo Supervisore
Che tipo di carta è Coboldo Supervisore?
Coboldo Supervisore è Creatura: coboldo carta inserita Magic: the Gathering MTG.
Qual è l'effetto della carta Coboldo Supervisore?
Altre creature Kobold che controlli prendono +1/+0.
Qual è il prezzo della carta Coboldo Supervisore?
Coboldo Supervisore attualmente inizia alle € 0,43. Visualizza i prezzi in tempo reale di più venditori nella sezione Dove acquistare sopra.
Qual è il set originale della carta Coboldo Supervisore?
Coboldo Supervisore è stato rilasciato per la prima volta nel set Legends, illustrato da Randy Asplund-Faith.
Qual è la legalità della carta Coboldo Supervisore?
La legalità dipende dal formato del torneo: Coboldo Supervisore può essere legale in alcuni formati e vietato o limitato in altri. Consulta la ripartizione completa per formato nella sezione Legalità sopra.
Quali carte sono simili a Coboldo Supervisore?
Carte simili a Coboldo Supervisore includere Sergente Istruttore Coboldo, Armaiolo Veterano, Inno dei Campioni. Consulta l'elenco completo nella sezione Carte simili sopra.





Reazioni
0
0 Commenti
Diventa il primo a commentare